Time;durP1;ratioP1;P1;durP2;ratioP2;P2;SDS_P1;SDS_P2;PMS_P1;PMS_P2;Temp;Humidity;BMP_temperature;BMP_pressure;BME280_temperature;BME280_humidity;BME280_pressure;Samples;Min_cycle;Max_cycle;Signal;HPM_P1;HPM_P2
2022/05/13 00:01:03;;;;;;;;;;;12.50;99.90;;;;;;5072178;28;19974;-60
2022/05/13 00:03:28;;;;;;;;;;;12.50;99.90;;;;;;5072295;28;19974;-59
2022/05/13 00:05:54;;;;;;;;;;;12.50;99.90;;;;;;5072075;28;19963;-59
2022/05/13 00:08:19;;;;;;;;;;;12.50;99.90;;;;;;5072081;28;19920;-59
2022/05/13 00:10:47;;;;;;;;;;;12.60;99.90;;;;;;5072117;28;19928;-59
2022/05/13 00:13:13;;;;;;;;;;;12.60;99.90;;;;;;5072059;28;20298;-60
2022/05/13 00:15:39;;;;;;;;;;;12.60;99.90;;;;;;5073253;28;19920;-64
2022/05/13 00:18:05;;;;;;;;;;;12.60;99.90;;;;;;5055337;28;19928;-63
2022/05/13 00:20:30;;;;;;;;;;;12.60;99.90;;;;;;5072979;28;20282;-63
2022/05/13 00:22:56;;;;;;;;;;;12.60;99.90;;;;;;5072911;28;19978;-63
2022/05/13 00:25:25;;;;;;;;;;;12.60;99.90;;;;;;5071362;28;19946;-63
2022/05/13 00:27:53;;;;;;;;;;;12.60;99.90;;;;;;5073158;28;19943;-63
2022/05/13 00:30:19;;;;;;;;;;;12.60;99.90;;;;;;5073064;28;19977;-63
2022/05/13 00:32:45;;;;;;;;;;;12.60;99.90;;;;;;5072539;28;19924;-60
2022/05/13 00:35:10;;;;;;;;;;;12.60;99.90;;;;;;5053848;28;19920;-60
2022/05/13 00:37:36;;;;;;;;;;;12.60;99.90;;;;;;5072968;28;19924;-63
2022/05/13 00:40:02;;;;;;;;;;;12.60;99.90;;;;;;5072513;28;20019;-63
2022/05/13 00:42:28;;;;;;;;;;;12.60;99.90;;;;;;5072952;28;20010;-63
2022/05/13 00:44:54;;;;;;;;;;;12.60;99.90;;;;;;5054938;28;19932;-63
2022/05/13 00:47:19;;;;;;;;;;;12.60;99.90;;;;;;5054209;28;19920;-62
2022/05/13 00:49:45;;;;;;;;;;;12.60;99.90;;;;;;5073701;28;19970;-63
2022/05/13 00:52:11;;;;;;;;;;;12.60;99.90;;;;;;5074974;28;19928;-63
2022/05/13 00:54:38;;;;;;;;;;;12.60;99.90;;;;;;5076844;28;19927;-63
2022/05/13 00:57:03;;;;;;;;;;;12.60;99.90;;;;;;5076629;28;19973;-63
2022/05/13 00:59:32;;;;;;;;;;;12.60;99.90;;;;;;5076338;28;20357;-63
2022/05/13 01:01:58;;;;;;;;;;;12.60;99.90;;;;;;5076805;28;19920;-63
2022/05/13 01:04:24;;;;;;;;;;;12.60;99.90;;;;;;5076872;28;20007;-64
2022/05/13 01:06:56;;;;;;;;;;;12.60;99.90;;;;;;5058560;28;19924;-63
2022/05/13 01:09:22;;;;;;;;;;;12.60;99.90;;;;;;5076701;28;19956;-62
2022/05/13 01:11:49;;;;;;;;;;;12.60;99.90;;;;;;5076014;28;20434;-63
2022/05/13 01:14:18;;;;;;;;;;;12.60;99.90;;;;;;5058058;28;19962;-63
2022/05/13 01:19:28;;;;;;;;;;;12.60;99.90;;;;;;5074782;28;19920;-62
2022/05/13 01:21:53;;;;;;;;;;;12.50;99.90;;;;;;5076102;28;19935;-63
2022/05/13 01:24:20;;;;;;;;;;;12.50;99.90;;;;;;5075905;28;19932;-62
2022/05/13 01:26:45;;;;;;;;;;;12.60;99.90;;;;;;5076085;28;19967;-63
2022/05/13 01:29:11;;;;;;;;;;;12.60;99.90;;;;;;5075899;28;19960;-63
2022/05/13 01:31:38;;;;;;;;;;;12.60;99.90;;;;;;5075915;28;20327;-63
2022/05/13 01:34:06;;;;;;;;;;;12.50;99.90;;;;;;5075686;28;19925;-64
2022/05/13 01:36:31;;;;;;;;;;;12.60;99.90;;;;;;5076169;28;19925;-63
2022/05/13 01:38:58;;;;;;;;;;;12.50;99.90;;;;;;5074963;28;19931;-60
2022/05/13 01:41:24;;;;;;;;;;;12.50;99.90;;;;;;5056943;28;19978;-60
2022/05/13 01:43:51;;;;;;;;;;;12.60;99.90;;;;;;5074514;28;19920;-59
2022/05/13 01:46:17;;;;;;;;;;;12.60;99.90;;;;;;5075650;28;19921;-63
2022/05/13 01:48:43;;;;;;;;;;;12.60;99.90;;;;;;5075419;28;19921;-64
2022/05/13 01:51:08;;;;;;;;;;;12.60;99.90;;;;;;5075255;28;19943;-63
2022/05/13 01:53:34;;;;;;;;;;;12.50;99.90;;;;;;5075429;28;19921;-63
2022/05/13 01:56:00;;;;;;;;;;;12.50;99.90;;;;;;5074972;28;19928;-63
2022/05/13 01:58:26;;;;;;;;;;;12.60;99.90;;;;;;5075191;28;20379;-64
2022/05/13 02:00:52;;;;;;;;;;;12.60;99.90;;;;;;5075062;28;19920;-63
2022/05/13 02:06:03;;;;;;;;;;;12.60;99.90;;;;;;5074105;28;19999;-60
2022/05/13 02:08:28;;;;;;;;;;;12.60;99.90;;;;;;5073981;28;20376;-60
2022/05/13 02:10:54;;;;;;;;;;;12.70;99.90;;;;;;5074351;28;19924;-60
2022/05/13 02:13:20;;;;;;;;;;;12.70;99.90;;;;;;5074334;28;19925;-60
2022/05/13 02:15:46;;;;;;;;;;;12.60;99.90;;;;;;5056210;28;19920;-59
2022/05/13 02:18:11;;;;;;;;;;;12.60;99.90;;;;;;5055597;28;19924;-59
2022/05/13 02:20:37;;;;;;;;;;;12.60;99.90;;;;;;5073692;28;19921;-59
2022/05/13 02:23:03;;;;;;;;;;;12.50;99.90;;;;;;5073684;28;19920;-59
2022/05/13 02:25:30;;;;;;;;;;;12.60;99.90;;;;;;5074039;28;19927;-59
2022/05/13 02:27:56;;;;;;;;;;;12.60;99.90;;;;;;5073894;28;19927;-60
2022/05/13 02:30:22;;;;;;;;;;;12.50;99.90;;;;;;5039986;28;20015;-62
2022/05/13 02:32:47;;;;;;;;;;;12.50;99.90;;;;;;5074051;28;20015;-63
2022/05/13 02:35:13;;;;;;;;;;;12.50;99.90;;;;;;5056656;28;20031;-63
2022/05/13 02:37:38;;;;;;;;;;;12.50;99.90;;;;;;5074654;28;19999;-63
2022/05/13 02:40:04;;;;;;;;;;;12.50;99.90;;;;;;5073992;28;20375;-64
2022/05/13 02:42:30;;;;;;;;;;;12.50;99.90;;;;;;5074355;28;20424;-63
2022/05/13 02:44:55;;;;;;;;;;;12.50;99.90;;;;;;5074416;28;19920;-64
2022/05/13 02:47:21;;;;;;;;;;;12.50;99.90;;;;;;5074268;28;19921;-64
2022/05/13 02:49:46;;;;;;;;;;;12.50;99.90;;;;;;5074456;28;19924;-63
2022/05/13 02:52:12;;;;;;;;;;;12.50;99.90;;;;;;5074387;28;19926;-64
2022/05/13 02:54:38;;;;;;;;;;;12.50;99.90;;;;;;5074436;28;20329;-64
2022/05/13 02:57:04;;;;;;;;;;;12.50;99.90;;;;;;5074260;28;20036;-64
2022/05/13 02:59:29;;;;;;;;;;;12.50;99.90;;;;;;5073817;28;20385;-63
2022/05/13 03:01:55;;;;;;;;;;;12.50;99.90;;;;;;5073558;28;20003;-63
2022/05/13 03:04:22;;;;;;;;;;;12.50;99.90;;;;;;5074156;28;19975;-64
2022/05/13 03:06:48;;;;;;;;;;;12.50;99.90;;;;;;5073952;28;19921;-63
2022/05/13 03:09:13;;;;;;;;;;;12.50;99.90;;;;;;5072895;28;19928;-60
2022/05/13 03:11:39;;;;;;;;;;;12.50;99.90;;;;;;5073116;28;19920;-60
2022/05/13 03:14:05;;;;;;;;;;;12.50;99.90;;;;;;5073001;28;19955;-63
2022/05/13 03:16:30;;;;;;;;;;;12.50;99.90;;;;;;5073904;28;19928;-64
2022/05/13 03:18:56;;;;;;;;;;;12.50;99.90;;;;;;5055073;28;20345;-60
2022/05/13 03:21:22;;;;;;;;;;;12.50;99.90;;;;;;5073364;28;20338;-64
2022/05/13 03:23:48;;;;;;;;;;;12.50;99.90;;;;;;5073479;28;19979;-64
2022/05/13 03:26:15;;;;;;;;;;;12.50;99.90;;;;;;5055680;28;19924;-64
2022/05/13 03:28:41;;;;;;;;;;;12.50;99.90;;;;;;5073659;28;19921;-63
2022/05/13 03:31:07;;;;;;;;;;;12.40;99.90;;;;;;5073590;28;20011;-64
2022/05/13 03:33:32;;;;;;;;;;;12.50;99.90;;;;;;5073151;28;19921;-64
2022/05/13 03:35:58;;;;;;;;;;;12.50;99.90;;;;;;5054615;28;19955;-64
2022/05/13 03:38:24;;;;;;;;;;;12.40;99.90;;;;;;5073260;28;19932;-64
2022/05/13 03:40:50;;;;;;;;;;;12.50;99.90;;;;;;5073550;28;20419;-64
2022/05/13 03:43:16;;;;;;;;;;;12.40;99.90;;;;;;5073589;28;19920;-64
2022/05/13 03:45:41;;;;;;;;;;;12.40;99.90;;;;;;5073523;28;20366;-64
2022/05/13 03:48:08;;;;;;;;;;;12.40;99.90;;;;;;5054047;28;19975;-61
2022/05/13 03:50:35;;;;;;;;;;;12.40;99.90;;;;;;5072351;28;20022;-61
2022/05/13 03:53:02;;;;;;;;;;;12.40;99.90;;;;;;5072570;28;19928;-61
2022/05/13 03:55:27;;;;;;;;;;;12.40;99.90;;;;;;5073128;28;19921;-63
2022/05/13 03:57:53;;;;;;;;;;;12.40;99.90;;;;;;5054732;28;20397;-64
2022/05/13 04:00:19;;;;;;;;;;;12.40;99.90;;;;;;5073218;28;19972;-64
2022/05/13 04:02:44;;;;;;;;;;;12.40;99.90;;;;;;5072900;28;19921;-64
2022/05/13 04:10:39;;;;;;;;;;;12.50;99.90;;;;;;5073034;28;19920;-64
2022/05/13 04:16:04;;;;;;;;;;;12.50;99.90;;;;;;5071031;28;19967;-63
2022/05/13 04:18:34;;;;;;;;;;;12.50;99.90;;;;;;5073046;28;20023;-63
2022/05/13 04:21:00;;;;;;;;;;;12.60;99.90;;;;;;5054622;28;19920;-64
2022/05/13 04:23:25;;;;;;;;;;;12.60;99.90;;;;;;5072749;28;19966;-63
2022/05/13 04:25:51;;;;;;;;;;;12.60;99.90;;;;;;5075607;28;20270;-63
2022/05/13 04:28:16;;;;;;;;;;;12.70;99.90;;;;;;5076553;28;19968;-63
2022/05/13 04:30:42;;;;;;;;;;;12.70;99.90;;;;;;5076946;28;19927;-63
2022/05/13 04:33:11;;;;;;;;;;;12.60;99.90;;;;;;5076939;28;20360;-63
2022/05/13 04:35:36;;;;;;;;;;;12.70;99.90;;;;;;5076785;28;19927;-63
2022/05/13 04:38:02;;;;;;;;;;;12.70;99.90;;;;;;5076840;28;19924;-63
2022/05/13 04:40:27;;;;;;;;;;;12.70;99.90;;;;;;5075983;28;20336;-63
2022/05/13 04:42:53;;;;;;;;;;;12.70;99.90;;;;;;5076941;28;19949;-64
2022/05/13 04:45:24;;;;;;;;;;;12.70;99.90;;;;;;5077090;28;20003;-64
2022/05/13 04:50:38;;;;;;;;;;;12.70;99.90;;;;;;5076853;28;19921;-60
2022/05/13 04:53:05;;;;;;;;;;;12.80;99.90;;;;;;5075459;28;20010;-61
2022/05/13 04:55:30;;;;;;;;;;;12.80;99.90;;;;;;5075631;28;19927;-60
2022/05/13 04:57:56;;;;;;;;;;;12.80;99.90;;;;;;5057276;28;19925;-61
2022/05/13 05:00:22;;;;;;;;;;;12.90;99.90;;;;;;5075465;28;20436;-60
2022/05/13 05:02:47;;;;;;;;;;;12.90;99.90;;;;;;5057690;28;19926;-60
2022/05/13 05:05:13;;;;;;;;;;;12.80;99.90;;;;;;5075294;28;20366;-61
2022/05/13 05:07:39;;;;;;;;;;;12.90;99.90;;;;;;5057381;28;19924;-61
2022/05/13 05:10:05;;;;;;;;;;;13.00;99.90;;;;;;5075380;28;20093;-63
2022/05/13 05:12:30;;;;;;;;;;;13.00;99.90;;;;;;5075699;28;19921;-61
2022/05/13 05:14:57;;;;;;;;;;;13.00;99.90;;;;;;5075223;28;19920;-60
2022/05/13 05:17:23;;;;;;;;;;;13.00;99.90;;;;;;5074974;28;19931;-61
2022/05/13 05:19:49;;;;;;;;;;;13.00;99.90;;;;;;5074992;28;19920;-61
2022/05/13 05:22:14;;;;;;;;;;;13.10;99.90;;;;;;5074908;28;19987;-61
2022/05/13 05:24:40;;;;;;;;;;;13.20;99.90;;;;;;5075120;28;20419;-61
2022/05/13 05:27:09;;;;;;;;;;;13.10;99.90;;;;;;5075049;28;20382;-60
2022/05/13 05:29:35;;;;;;;;;;;13.20;99.90;;;;;;5057342;28;20274;-61
2022/05/13 05:32:01;;;;;;;;;;;13.20;99.90;;;;;;5074942;28;19920;-61
2022/05/13 05:34:26;;;;;;;;;;;13.20;99.90;;;;;;5074853;28;19927;-61
2022/05/13 05:36:52;;;;;;;;;;;13.30;99.90;;;;;;5056167;28;19924;-61
2022/05/13 05:39:17;;;;;;;;;;;13.30;99.90;;;;;;5073489;28;19928;-61
2022/05/13 05:41:43;;;;;;;;;;;13.40;99.90;;;;;;5074916;28;20447;-61
2022/05/13 05:44:08;;;;;;;;;;;13.40;99.90;;;;;;5074688;28;20325;-61
2022/05/13 05:46:34;;;;;;;;;;;13.40;99.90;;;;;;5074376;28;20274;-61
2022/05/13 05:48:59;;;;;;;;;;;13.50;99.90;;;;;;5074441;28;19920;-61
2022/05/13 05:51:25;;;;;;;;;;;13.50;99.90;;;;;;5074360;28;19924;-61
2022/05/13 05:59:19;;;;;;;;;;;13.50;99.90;;;;;;5074372;28;20094;-61
2022/05/13 06:01:45;;;;;;;;;;;13.50;99.90;;;;;;5074120;28;20436;-61
2022/05/13 06:04:11;;;;;;;;;;;13.50;99.90;;;;;;5074163;28;20321;-61
2022/05/13 06:06:37;;;;;;;;;;;13.50;99.90;;;;;;5074125;28;19920;-61
2022/05/13 06:09:02;;;;;;;;;;;13.50;99.90;;;;;;5074245;28;19974;-60
2022/05/13 06:11:28;;;;;;;;;;;13.50;99.90;;;;;;5074040;28;19956;-60
2022/05/13 06:13:54;;;;;;;;;;;13.50;99.90;;;;;;5074188;28;20450;-61
2022/05/13 06:16:22;;;;;;;;;;;13.50;99.90;;;;;;5073758;28;20016;-61
2022/05/13 06:18:48;;;;;;;;;;;13.50;99.90;;;;;;5073952;28;20373;-61
2022/05/13 06:21:13;;;;;;;;;;;13.60;99.90;;;;;;5073680;28;19925;-60
2022/05/13 06:23:39;;;;;;;;;;;13.60;99.90;;;;;;5073885;28;19972;-61
2022/05/13 06:26:05;;;;;;;;;;;13.60;99.90;;;;;;5073770;28;19960;-60
2022/05/13 06:28:31;;;;;;;;;;;13.60;99.90;;;;;;5073846;28;20342;-61
2022/05/13 06:30:56;;;;;;;;;;;13.70;99.90;;;;;;5073753;28;19978;-61
2022/05/13 06:33:22;;;;;;;;;;;13.70;99.90;;;;;;5074045;28;20051;-61
2022/05/13 06:35:48;;;;;;;;;;;13.70;99.90;;;;;;5073582;28;20332;-61
2022/05/13 06:38:20;;;;;;;;;;;13.70;99.90;;;;;;5073224;28;19929;-61
2022/05/13 06:40:47;;;;;;;;;;;13.80;99.90;;;;;;5033506;28;19931;-61
2022/05/13 06:43:12;;;;;;;;;;;13.80;99.90;;;;;;5033589;28;19921;-60
2022/05/13 06:45:38;;;;;;;;;;;13.80;99.90;;;;;;5033603;28;19925;-61
2022/05/13 06:48:04;;;;;;;;;;;13.90;99.90;;;;;;5033036;28;20361;-61
2022/05/13 06:50:30;;;;;;;;;;;13.90;99.90;;;;;;5033464;28;19928;-60
2022/05/13 06:52:55;;;;;;;;;;;14.00;99.90;;;;;;5032029;28;19921;-60
2022/05/13 06:55:21;;;;;;;;;;;14.10;99.90;;;;;;5032163;28;19921;-61
2022/05/13 06:57:46;;;;;;;;;;;14.20;99.90;;;;;;5033136;28;19929;-61
2022/05/13 07:00:12;;;;;;;;;;;14.20;99.90;;;;;;5033197;28;19925;-61
2022/05/13 07:02:38;;;;;;;;;;;14.30;99.90;;;;;;5033389;28;19921;-60
2022/05/13 07:05:04;;;;;;;;;;;14.50;99.90;;;;;;5048503;28;19975;-60
2022/05/13 07:07:29;;;;;;;;;;;14.40;99.90;;;;;;5033030;28;19961;-61
2022/05/13 07:09:55;;;;;;;;;;;14.40;99.90;;;;;;5033177;28;19924;-61
2022/05/13 07:12:20;;;;;;;;;;;14.30;99.90;;;;;;5033112;28;20307;-62
2022/05/13 07:14:46;;;;;;;;;;;14.30;99.90;;;;;;5032834;28;20273;-61
2022/05/13 07:17:11;;;;;;;;;;;14.40;99.90;;;;;;5032838;28;20023;-61
2022/05/13 07:19:37;;;;;;;;;;;14.40;99.90;;;;;;5031491;28;19926;-61
2022/05/13 07:22:03;;;;;;;;;;;14.70;99.90;;;;;;5033050;28;20169;-62
2022/05/13 07:24:29;;;;;;;;;;;14.80;99.90;;;;;;5033078;28;19929;-61
2022/05/13 07:26:55;;;;;;;;;;;15.00;99.90;;;;;;5032857;28;20035;-61
2022/05/13 07:29:20;;;;;;;;;;;15.10;99.90;;;;;;5032609;28;19921;-62
2022/05/13 07:31:46;;;;;;;;;;;15.40;99.90;;;;;;5032928;28;19975;-62
2022/05/13 07:34:11;;;;;;;;;;;15.70;99.90;;;;;;5032694;28;19921;-61
2022/05/13 07:36:37;;;;;;;;;;;15.90;99.90;;;;;;5032660;28;20291;-62
2022/05/13 07:41:47;;;;;;;;;;;15.90;99.90;;;;;;5072407;28;19924;-61
2022/05/13 07:44:13;;;;;;;;;;;16.00;99.90;;;;;;5054734;28;19921;-61
2022/05/13 07:46:38;;;;;;;;;;;16.00;99.90;;;;;;5054622;28;20359;-61
2022/05/13 07:49:04;;;;;;;;;;;15.90;99.90;;;;;;5072327;28;19924;-61
2022/05/13 07:51:30;;;;;;;;;;;15.60;99.90;;;;;;5072429;28;19926;-61
2022/05/13 07:53:55;;;;;;;;;;;15.60;99.90;;;;;;5072652;28;20003;-61
2022/05/13 07:56:21;;;;;;;;;;;15.60;99.90;;;;;;5072139;28;19928;-61
2022/05/13 07:58:47;;;;;;;;;;;15.60;99.90;;;;;;5072498;28;20272;-62
2022/05/13 08:01:12;;;;;;;;;;;15.40;99.90;;;;;;5072439;28;19983;-61
2022/05/13 08:03:38;;;;;;;;;;;15.40;99.90;;;;;;5072216;28;20014;-61
2022/05/13 08:06:04;;;;;;;;;;;15.60;99.90;;;;;;5072149;28;20027;-61
2022/05/13 08:08:33;;;;;;;;;;;15.50;99.90;;;;;;5072188;28;19935;-61
2022/05/13 08:11:00;;;;;;;;;;;15.30;99.90;;;;;;5071895;28;20371;-61
2022/05/13 08:13:28;;;;;;;;;;;15.20;99.90;;;;;;5072338;28;19991;-61
2022/05/13 08:15:54;;;;;;;;;;;15.20;99.90;;;;;;5071998;28;20433;-61
2022/05/13 08:18:20;;;;;;;;;;;15.20;99.90;;;;;;5072105;28;19980;-62
2022/05/13 08:20:46;;;;;;;;;;;15.20;99.90;;;;;;5072007;28;20298;-64
2022/05/13 08:23:11;;;;;;;;;;;15.00;99.90;;;;;;5072051;28;19921;-62
2022/05/13 08:25:37;;;;;;;;;;;15.10;99.90;;;;;;5071894;28;19928;-62
2022/05/13 08:28:07;;;;;;;;;;;15.20;99.90;;;;;;5053883;28;19927;-62
2022/05/13 08:30:32;;;;;;;;;;;15.40;99.90;;;;;;5071983;28;20374;-61
2022/05/13 08:33:01;;;;;;;;;;;15.70;99.90;;;;;;5072020;28;19927;-62
2022/05/13 08:35:27;;;;;;;;;;;15.70;99.90;;;;;;5071841;28;19924;-62
2022/05/13 08:37:53;;;;;;;;;;;15.50;99.90;;;;;;5071674;28;20373;-61
2022/05/13 08:40:28;;;;;;;;;;;15.70;99.90;;;;;;5071583;28;19931;-61
2022/05/13 08:42:54;;;;;;;;;;;16.10;99.90;;;;;;5072027;28;19928;-61
2022/05/13 08:45:20;;;;;;;;;;;16.60;99.90;;;;;;5072007;28;20009;-61
2022/05/13 08:47:51;;;;;;;;;;;16.90;99.90;;;;;;5072032;28;19924;-63
2022/05/13 08:50:21;;;;;;;;;;;16.80;99.90;;;;;;5072013;28;19968;-65
2022/05/13 08:53:08;;;;;;;;;;;16.50;99.90;;;;;;5072027;28;19970;-64
2022/05/13 08:55:36;;;;;;;;;;;16.10;99.90;;;;;;5072146;28;19924;-66
2022/05/13 08:58:03;;;;;;;;;;;16.00;99.90;;;;;;5071869;28;19932;-62
2022/05/13 09:00:32;;;;;;;;;;;16.20;99.90;;;;;;5071684;28;19924;-62
2022/05/13 09:03:06;;;;;;;;;;;16.70;99.90;;;;;;5071644;28;19924;-65
2022/05/13 09:05:35;;;;;;;;;;;16.90;99.90;;;;;;5071728;28;19928;-65
2022/05/13 09:08:01;;;;;;;;;;;17.00;99.90;;;;;;5071800;28;20091;-66
2022/05/13 09:10:28;;;;;;;;;;;17.10;99.90;;;;;;5071772;28;19920;-65
2022/05/13 09:13:02;;;;;;;;;;;16.90;99.90;;;;;;5075273;28;19950;-65
2022/05/13 09:15:47;;;;;;;;;;;16.60;99.90;;;;;;5075417;28;19963;-65
2022/05/13 09:18:38;;;;;;;;;;;16.80;99.90;;;;;;5074893;28;19929;-65
2022/05/13 09:21:16;;;;;;;;;;;16.90;99.90;;;;;;5071063;28;19924;-64
2022/05/13 09:23:42;;;;;;;;;;;16.70;99.90;;;;;;5075197;28;19927;-64
2022/05/13 09:26:08;;;;;;;;;;;16.50;99.90;;;;;;5075109;28;20348;-64
2022/05/13 09:28:35;;;;;;;;;;;16.30;99.90;;;;;;5073778;28;19924;-65
2022/05/13 09:31:27;;;;;;;;;;;16.20;99.90;;;;;;5074896;28;20286;-64
2022/05/13 09:33:53;;;;;;;;;;;16.50;99.90;;;;;;5070830;28;20011;-65
2022/05/13 09:36:21;;;;;;;;;;;16.40;99.90;;;;;;5074770;28;20073;-64
2022/05/13 09:38:50;;;;;;;;;;;16.30;99.90;;;;;;5073993;28;20293;-65
2022/05/13 09:41:27;;;;;;;;;;;16.20;99.90;;;;;;5056861;28;20328;-64
2022/05/13 09:43:52;;;;;;;;;;;16.10;99.90;;;;;;5074858;28;19921;-65
2022/05/13 09:46:22;;;;;;;;;;;16.00;99.90;;;;;;5056763;28;19927;-65
2022/05/13 09:48:57;;;;;;;;;;;15.90;99.90;;;;;;5074499;28;19920;-65
2022/05/13 09:51:25;;;;;;;;;;;16.00;99.90;;;;;;5075009;28;20306;-65
2022/05/13 09:54:01;;;;;;;;;;;16.00;99.90;;;;;;5074833;28;19920;-65
2022/05/13 09:56:43;;;;;;;;;;;16.00;99.90;;;;;;5074495;28;19924;-65
2022/05/13 09:59:22;;;;;;;;;;;16.10;99.90;;;;;;5074492;28;19920;-64
2022/05/13 10:01:48;;;;;;;;;;;15.90;99.90;;;;;;5074663;28;20026;-66
2022/05/13 10:04:24;;;;;;;;;;;16.00;99.90;;;;;;5074115;28;20019;-66
2022/05/13 10:07:01;;;;;;;;;;;16.20;99.90;;;;;;5074813;28;19935;-66
2022/05/13 10:15:08;;;;;;;;;;;16.60;99.90;;;;;;5074151;28;19963;-65
2022/05/13 10:17:35;;;;;;;;;;;17.20;99.90;;;;;;5073928;28;19929;-63
2022/05/13 10:20:03;;;;;;;;;;;17.60;99.90;;;;;;5073777;28;20394;-64
2022/05/13 10:22:35;;;;;;;;;;;18.00;99.90;;;;;;5072807;28;19921;-65
2022/05/13 10:25:06;;;;;;;;;;;18.40;99.90;;;;;;5074029;28;19978;-64
2022/05/13 10:27:31;;;;;;;;;;;18.50;99.90;;;;;;5074114;28;20284;-61
2022/05/13 10:30:00;;;;;;;;;;;18.40;99.90;;;;;;5073699;28;19920;-61
2022/05/13 10:32:44;;;;;;;;;;;17.90;99.90;;;;;;5074074;28;20449;-65
2022/05/13 10:35:12;;;;;;;;;;;17.60;99.90;;;;;;5073762;28;19920;-64
2022/05/13 10:37:56;;;;;;;;;;;17.90;99.90;;;;;;5073494;28;19958;-65
2022/05/13 10:40:22;;;;;;;;;;;18.30;99.90;;;;;;5073227;28;20393;-63
2022/05/13 10:42:53;;;;;;;;;;;18.20;99.90;;;;;;5073206;28;20439;-66
2022/05/13 10:45:21;;;;;;;;;;;18.10;99.90;;;;;;5073609;28;19974;-64
2022/05/13 10:47:49;;;;;;;;;;;17.90;99.90;;;;;;5073481;28;19921;-66
2022/05/13 10:50:23;;;;;;;;;;;17.60;99.90;;;;;;5073424;28;19971;-63
2022/05/13 10:52:54;;;;;;;;;;;17.50;99.90;;;;;;5073619;28;19921;-63
2022/05/13 10:55:32;;;;;;;;;;;17.30;99.90;;;;;;5073261;28;19940;-64
2022/05/13 10:58:13;;;;;;;;;;;17.20;99.90;;;;;;5073421;28;20370;-65
2022/05/13 11:00:41;;;;;;;;;;;17.00;99.90;;;;;;5073034;28;20370;-66
2022/05/13 11:03:19;;;;;;;;;;;16.80;99.90;;;;;;5073169;28;20268;-65
2022/05/13 11:06:04;;;;;;;;;;;16.90;99.90;;;;;;5073091;28;19921;-65
2022/05/13 11:08:32;;;;;;;;;;;16.90;99.90;;;;;;5073208;28;19935;-66
2022/05/13 11:11:16;;;;;;;;;;;16.80;99.90;;;;;;5072983;28;20446;-64
2022/05/13 11:13:52;;;;;;;;;;;16.70;99.90;;;;;;5073059;28;19924;-64
2022/05/13 11:16:17;;;;;;;;;;;16.60;99.90;;;;;;5072972;28;19927;-64
2022/05/13 11:18:43;;;;;;;;;;;16.50;99.90;;;;;;5071651;28;20132;-64
2022/05/13 11:21:08;;;;;;;;;;;16.50;99.90;;;;;;5072967;28;19920;-65
2022/05/13 11:25:54;;;;;;;;;;;16.50;99.90;;;;;;5072617;28;19924;-65
2022/05/13 11:26:40;;;;;;;;;;;16.50;99.90;;;;;;5072569;28;20301;-64
2022/05/13 11:29:07;;;;;;;;;;;16.50;99.90;;;;;;5054992;28;19920;-64
2022/05/13 11:31:33;;;;;;;;;;;16.40;99.90;;;;;;5072681;28;19952;-64
2022/05/13 11:34:09;;;;;;;;;;;16.50;99.90;;;;;;5072097;28;19994;-64
2022/05/13 11:36:40;;;;;;;;;;;16.50;99.90;;;;;;5072478;28;19926;-64
2022/05/13 11:39:25;;;;;;;;;;;16.40;99.90;;;;;;5072366;28;19924;-65
2022/05/13 11:42:13;;;;;;;;;;;16.40;99.90;;;;;;5072525;28;19920;-65
2022/05/13 11:44:48;;;;;;;;;;;16.50;99.90;;;;;;4990641;28;19968;-64
2022/05/13 11:47:16;;;;;;;;;;;16.80;99.90;;;;;;4991004;28;19926;-65
2022/05/13 11:49:44;;;;;;;;;;;16.90;99.90;;;;;;4990923;28;19969;-65
2022/05/13 11:52:12;;;;;;;;;;;17.20;99.90;;;;;;4990940;28;20021;-65
2022/05/13 11:54:42;;;;;;;;;;;17.50;99.90;;;;;;4990567;28;20027;-65
2022/05/13 11:57:16;;;;;;;;;;;17.50;99.90;;;;;;4991104;28;20310;-65
2022/05/13 11:59:44;;;;;;;;;;;17.40;99.90;;;;;;4990643;28;20009;-64
2022/05/13 12:02:09;;;;;;;;;;;17.40;99.90;;;;;;4990799;28;19928;-65
2022/05/13 12:04:58;;;;;;;;;;;17.30;99.90;;;;;;4990623;28;20008;-64
2022/05/13 12:07:26;;;;;;;;;;;17.20;99.90;;;;;;4990515;28;20014;-64
2022/05/13 12:09:54;;;;;;;;;;;17.10;99.90;;;;;;4990615;28;20344;-65
2022/05/13 12:12:19;;;;;;;;;;;17.00;99.90;;;;;;4990692;28;19922;-65
2022/05/13 12:14:47;;;;;;;;;;;17.00;99.90;;;;;;4990725;28;20304;-64
2022/05/13 12:17:31;;;;;;;;;;;16.90;99.90;;;;;;4990459;28;20336;-64
2022/05/13 12:20:07;;;;;;;;;;;16.80;99.90;;;;;;4990546;28;19990;-65
2022/05/13 12:22:52;;;;;;;;;;;16.80;99.90;;;;;;5062130;28;19920;-65
2022/05/13 12:25:26;;;;;;;;;;;16.80;99.90;;;;;;5091408;28;19927;-65
2022/05/13 12:28:11;;;;;;;;;;;17.10;99.90;;;;;;5095427;28;19920;-64
2022/05/13 12:30:37;;;;;;;;;;;17.70;99.90;;;;;;5092137;28;20046;-64
2022/05/13 12:33:17;;;;;;;;;;;18.00;99.90;;;;;;5093534;28;20033;-64
2022/05/13 12:38:28;;;;;;;;;;;17.80;99.90;;;;;;5091905;28;19924;-65
2022/05/13 12:41:05;;;;;;;;;;;17.60;99.90;;;;;;5073335;28;19935;-64
2022/05/13 12:43:54;;;;;;;;;;;17.50;99.90;;;;;;5091857;28;19920;-63
2022/05/13 12:46:38;;;;;;;;;;;17.60;99.90;;;;;;4990178;28;20040;-64
2022/05/13 12:49:08;;;;;;;;;;;18.10;99.90;;;;;;4996675;28;19921;-65
2022/05/13 12:51:39;;;;;;;;;;;18.20;99.90;;;;;;4993714;28;19969;-65
2022/05/13 12:54:05;;;;;;;;;;;18.10;99.90;;;;;;4993962;28;19925;-64
2022/05/13 12:56:36;;;;;;;;;;;17.80;99.90;;;;;;4993828;28;19921;-64
2022/05/13 12:59:11;;;;;;;;;;;17.60;99.90;;;;;;4993851;28;20019;-64
2022/05/13 13:01:39;;;;;;;;;;;17.40;99.90;;;;;;4993909;28;19921;-64
2022/05/13 13:04:06;;;;;;;;;;;17.40;99.90;;;;;;4994107;28;19926;-64
2022/05/13 13:06:37;;;;;;;;;;;17.20;99.90;;;;;;5000800;28;19992;-64
2022/05/13 13:09:02;;;;;;;;;;;17.10;99.90;;;;;;5013562;28;19922;-65
2022/05/13 13:11:28;;;;;;;;;;;17.20;99.90;;;;;;4996610;28;19921;-64
2022/05/13 13:14:10;;;;;;;;;;;17.30;99.90;;;;;;4996580;28;20016;-64
2022/05/13 13:16:39;;;;;;;;;;;17.50;99.90;;;;;;4981841;28;19925;-64
2022/05/13 13:19:10;;;;;;;;;;;17.50;99.90;;;;;;4991227;28;19926;-65
2022/05/13 13:21:36;;;;;;;;;;;17.50;99.90;;;;;;4993065;28;19980;-65
2022/05/13 13:24:05;;;;;;;;;;;17.40;99.90;;;;;;5058504;28;19928;-64
2022/05/13 13:26:31;;;;;;;;;;;17.50;99.90;;;;;;5075082;28;19920;-65
2022/05/13 13:28:56;;;;;;;;;;;18.00;99.90;;;;;;5074828;28;19927;-64
2022/05/13 13:31:26;;;;;;;;;;;18.20;99.90;;;;;;5074823;28;19987;-64
2022/05/13 13:33:53;;;;;;;;;;;18.10;99.90;;;;;;5074932;28;19920;-65
2022/05/13 13:36:24;;;;;;;;;;;18.20;99.90;;;;;;5040055;28;19973;-64
2022/05/13 13:38:51;;;;;;;;;;;18.50;99.90;;;;;;5074436;28;19924;-64
2022/05/13 13:41:24;;;;;;;;;;;18.60;99.90;;;;;;5074600;28;19970;-64
2022/05/13 13:43:54;;;;;;;;;;;18.70;99.90;;;;;;5074514;28;19927;-64
2022/05/13 13:46:22;;;;;;;;;;;18.80;99.90;;;;;;5075209;28;20338;-65
2022/05/13 13:48:52;;;;;;;;;;;18.50;99.90;;;;;;5074486;28;19947;-65
2022/05/13 13:51:20;;;;;;;;;;;18.70;99.90;;;;;;5074670;28;20270;-66
2022/05/13 13:53:48;;;;;;;;;;;18.40;99.90;;;;;;5074293;28;20023;-65
2022/05/13 13:56:17;;;;;;;;;;;18.10;99.90;;;;;;5074115;28;20444;-66
2022/05/13 13:58:45;;;;;;;;;;;18.00;99.90;;;;;;5074063;28;20035;-65
2022/05/13 14:01:18;;;;;;;;;;;18.10;99.90;;;;;;5074195;28;19928;-65
2022/05/13 14:03:44;;;;;;;;;;;18.40;99.90;;;;;;5074162;28;19975;-65
2022/05/13 14:06:15;;;;;;;;;;;18.40;99.90;;;;;;5074376;28;19951;-65
2022/05/13 14:08:43;;;;;;;;;;;18.00;99.90;;;;;;5074007;28;20003;-65
2022/05/13 14:11:12;;;;;;;;;;;18.20;99.90;;;;;;5073903;28;19924;-65
2022/05/13 14:13:49;;;;;;;;;;;18.60;99.90;;;;;;5055901;28;20393;-64
2022/05/13 14:16:15;;;;;;;;;;;18.70;99.90;;;;;;5073997;28;20287;-64
2022/05/13 14:18:42;;;;;;;;;;;18.60;99.90;;;;;;5073873;28;19927;-64
2022/05/13 14:21:30;;;;;;;;;;;18.90;99.90;;;;;;5073971;28;19931;-64
2022/05/13 14:24:05;;;;;;;;;;;19.10;99.90;;;;;;5073650;28;19920;-64
2022/05/13 14:26:33;;;;;;;;;;;19.10;99.90;;;;;;5074067;28;19920;-65
2022/05/13 14:28:59;;;;;;;;;;;18.90;99.90;;;;;;5073503;28;19920;-64
2022/05/13 14:31:34;;;;;;;;;;;19.00;99.90;;;;;;5073648;28;19921;-64
2022/05/13 14:34:00;;;;;;;;;;;18.60;99.90;;;;;;5073495;28;19920;-64
2022/05/13 14:36:52;;;;;;;;;;;18.30;99.90;;;;;;5073167;28;20267;-65
2022/05/13 14:42:16;;;;;;;;;;;18.10;99.90;;;;;;5073450;28;20017;-65
2022/05/13 14:44:43;;;;;;;;;;;18.00;99.90;;;;;;5073487;28;20377;-64
2022/05/13 14:47:17;;;;;;;;;;;18.00;99.90;;;;;;5073285;28;19921;-65
2022/05/13 14:49:50;;;;;;;;;;;17.80;99.90;;;;;;5073309;28;19924;-65
2022/05/13 14:52:38;;;;;;;;;;;18.00;99.90;;;;;;5073046;28;19920;-64
2022/05/13 14:55:14;;;;;;;;;;;18.10;99.90;;;;;;4991607;28;19933;-65
2022/05/13 14:57:42;;;;;;;;;;;18.10;99.90;;;;;;4975670;28;20009;-65
2022/05/13 15:00:12;;;;;;;;;;;18.20;99.90;;;;;;4991499;28;19929;-65